Time;durP1;ratioP1;P1;durP2;ratioP2;P2;SDS_P1;SDS_P2;PMS_P1;PMS_P2;Temp;Humidity;BMP_temperature;BMP_pressure;BME280_temperature;BME280_humidity;BME280_pressure;Samples;Min_cycle;Max_cycle;Signal;HPM_P1;HPM_P2
2021/07/06 00:01:50;;;;;;;1.93;1.43;;;;;;;;;;5055977;28;20408;-76
2021/07/06 00:04:16;;;;;;;1.60;1.33;;;;;;;;;;5055878;28;20420;-75
2021/07/06 00:06:42;;;;;;;2.40;1.40;;;;;;;;;;5055887;28;20379;-75
2021/07/06 00:09:08;;;;;;;3.70;1.50;;;;;;;;;;5056002;28;20497;-75
2021/07/06 00:11:34;;;;;;;3.30;1.50;;;;;;;;;;5055729;28;20379;-76
2021/07/06 00:14:00;;;;;;;3.63;1.80;;;;;;;;;;5055393;28;20414;-77
2021/07/06 00:16:26;;;;;;;1.30;1.20;;;;;;;;;;5055866;28;20394;-76
2021/07/06 00:18:52;;;;;;;6.43;1.50;;;;;;;;;;5055800;28;20451;-76
2021/07/06 00:21:18;;;;;;;1.40;1.30;;;;;;;;;;5055752;28;20464;-76
2021/07/06 00:23:45;;;;;;;9.00;1.47;;;;;;;;;;5056140;28;20903;-75
2021/07/06 00:26:11;;;;;;;2.70;1.47;;;;;;;;;;5059955;28;20390;-76
2021/07/06 00:28:37;;;;;;;1.40;1.30;;;;;;;;;;5055554;28;20867;-75
2021/07/06 00:31:03;;;;;;;4.10;1.40;;;;;;;;;;5055548;28;20386;-75
2021/07/06 00:33:30;;;;;;;2.60;1.40;;;;;;;;;;5055089;28;20807;-75
2021/07/06 00:36:01;;;;;;;1.77;1.50;;;;;;;;;;5055065;28;20428;-76
2021/07/06 00:38:28;;;;;;;4.77;1.90;;;;;;;;;;5055180;28;21041;-76
2021/07/06 00:40:54;;;;;;;5.57;2.10;;;;;;;;;;5055285;28;20479;-75
2021/07/06 00:43:20;;;;;;;3.37;1.20;;;;;;;;;;5054852;28;20416;-75
2021/07/06 00:45:47;;;;;;;3.70;1.33;;;;;;;;;;5054959;28;20435;-76
2021/07/06 00:48:12;;;;;;;4.97;1.30;;;;;;;;;;5054879;28;20899;-75
2021/07/06 00:50:39;;;;;;;1.57;1.20;;;;;;;;;;5055075;28;20408;-78
2021/07/06 00:53:05;;;;;;;4.60;1.27;;;;;;;;;;5054705;28;20415;-79
2021/07/06 00:55:31;;;;;;;2.50;1.37;;;;;;;;;;5054915;28;20432;-78
2021/07/06 00:57:57;;;;;;;2.10;1.70;;;;;;;;;;5054878;28;20824;-79
2021/07/06 01:00:24;;;;;;;2.60;1.60;;;;;;;;;;5054824;28;20379;-79
2021/07/06 01:02:50;;;;;;;2.30;1.50;;;;;;;;;;5054601;28;20419;-79
2021/07/06 01:05:18;;;;;;;2.10;1.20;;;;;;;;;;5054827;28;20420;-78
2021/07/06 01:07:44;;;;;;;2.53;1.03;;;;;;;;;;5053566;28;20456;-78
2021/07/06 01:10:11;;;;;;;5.10;1.10;;;;;;;;;;5053609;28;20426;-78
2021/07/06 01:12:37;;;;;;;1.53;1.30;;;;;;;;;;5053362;28;20553;-75
2021/07/06 01:15:05;;;;;;;1.47;1.37;;;;;;;;;;5054550;28;20523;-76
2021/07/06 01:17:31;;;;;;;1.33;1.23;;;;;;;;;;5054599;28;20375;-76
2021/07/06 01:20:07;;;;;;;1.50;1.20;;;;;;;;;;5053325;28;20875;-76
2021/07/06 01:22:33;;;;;;;5.10;1.90;;;;;;;;;;5053044;28;20405;-80
2021/07/06 01:25:00;;;;;;;5.70;1.63;;;;;;;;;;5054127;28;20418;-76
2021/07/06 01:27:26;;;;;;;2.97;1.50;;;;;;;;;;5054517;28;20463;-76
2021/07/06 01:29:54;;;;;;;2.60;1.50;;;;;;;;;;5053075;28;20401;-76
2021/07/06 01:32:20;;;;;;;3.13;1.57;;;;;;;;;;5054454;28;20431;-76
2021/07/06 01:34:46;;;;;;;4.70;2.10;;;;;;;;;;5053919;28;20424;-76
2021/07/06 01:37:16;;;;;;;1.50;1.20;;;;;;;;;;5054154;28;20438;-76
2021/07/06 01:39:42;;;;;;;2.90;1.43;;;;;;;;;;5052832;28;20466;-75
2021/07/06 01:42:08;;;;;;;1.80;1.40;;;;;;;;;;5053906;28;20383;-76
2021/07/06 01:44:34;;;;;;;4.57;1.40;;;;;;;;;;5053535;28;20500;-76
2021/07/06 01:47:00;;;;;;;1.93;1.50;;;;;;;;;;5053950;28;20408;-76
2021/07/06 01:49:26;;;;;;;3.40;1.20;;;;;;;;;;5053942;28;20908;-76
2021/07/06 01:51:52;;;;;;;2.93;1.57;;;;;;;;;;5053875;28;20455;-76
2021/07/06 01:54:18;;;;;;;4.93;1.70;;;;;;;;;;5053215;28;20418;-76
2021/07/06 01:56:45;;;;;;;7.87;2.77;;;;;;;;;;5053906;28;20412;-76
2021/07/06 01:59:12;;;;;;;2.37;1.70;;;;;;;;;;5053780;28;20466;-75
2021/07/06 02:01:38;;;;;;;1.97;1.77;;;;;;;;;;5053949;28;20407;-75
2021/07/06 02:04:05;;;;;;;1.87;1.70;;;;;;;;;;5052278;28;20402;-75
2021/07/06 02:06:32;;;;;;;4.23;1.80;;;;;;;;;;5053427;28;20999;-76
2021/07/06 02:08:58;;;;;;;2.80;1.40;;;;;;;;;;5053197;28;20424;-75
2021/07/06 02:11:24;;;;;;;3.50;1.73;;;;;;;;;;5053597;28;20394;-75
2021/07/06 02:13:51;;;;;;;2.33;1.40;;;;;;;;;;5052247;28;20386;-75
2021/07/06 02:16:17;;;;;;;1.93;1.60;;;;;;;;;;5053479;28;20438;-75
2021/07/06 02:18:43;;;;;;;2.77;1.97;;;;;;;;;;5053451;28;20881;-76
2021/07/06 02:21:09;;;;;;;4.80;1.87;;;;;;;;;;5053642;28;20430;-76
2021/07/06 02:23:36;;;;;;;4.97;1.63;;;;;;;;;;5052103;28;20761;-75
2021/07/06 02:26:04;;;;;;;4.20;1.80;;;;;;;;;;5053415;28;20406;-75
2021/07/06 02:28:30;;;;;;;8.40;1.60;;;;;;;;;;5053349;28;20371;-76
2021/07/06 02:30:57;;;;;;;2.93;1.57;;;;;;;;;;5053291;28;20844;-75
2021/07/06 02:33:23;;;;;;;2.53;1.67;;;;;;;;;;5051722;28;20431;-75
2021/07/06 02:35:49;;;;;;;3.23;1.77;;;;;;;;;;5053179;28;20432;-76
2021/07/06 02:38:15;;;;;;;6.33;1.93;;;;;;;;;;5052840;28;20460;-75
2021/07/06 02:40:41;;;;;;;4.73;1.90;;;;;;;;;;5052937;28;20408;-76
2021/07/06 02:43:08;;;;;;;6.10;1.77;;;;;;;;;;5052730;28;20891;-75
2021/07/06 02:45:34;;;;;;;5.50;1.97;;;;;;;;;;5053104;28;20885;-75
2021/07/06 02:48:00;;;;;;;2.80;1.60;;;;;;;;;;5052947;28;20412;-76
2021/07/06 02:50:26;;;;;;;3.37;2.37;;;;;;;;;;5052819;28;20412;-76
2021/07/06 02:52:53;;;;;;;5.53;1.77;;;;;;;;;;5052547;28;20781;-75
2021/07/06 02:55:20;;;;;;;2.90;2.47;;;;;;;;;;5052914;28;20428;-75
2021/07/06 02:57:46;;;;;;;3.23;1.80;;;;;;;;;;5053000;28;20441;-76
2021/07/06 03:00:15;;;;;;;8.27;1.60;;;;;;;;;;5052979;28;20404;-75
2021/07/06 03:02:42;;;;;;;1.77;1.50;;;;;;;;;;5052833;28;20457;-76
2021/07/06 03:05:09;;;;;;;4.07;1.50;;;;;;;;;;5052512;28;20467;-75
2021/07/06 03:07:36;;;;;;;2.83;1.47;;;;;;;;;;5052817;28;20444;-76
2021/07/06 03:10:04;;;;;;;3.10;1.90;;;;;;;;;;5053002;28;20484;-75
2021/07/06 03:12:30;;;;;;;3.57;2.10;;;;;;;;;;5053083;28;20375;-76
2021/07/06 03:14:55;;;;;;;2.13;1.77;;;;;;;;;;5052608;28;20403;-76
2021/07/06 03:17:21;;;;;;;4.30;1.90;;;;;;;;;;5051512;28;20747;-75
2021/07/06 03:19:47;;;;;;;7.03;1.50;;;;;;;;;;5051665;28;20534;-76
2021/07/06 03:22:13;;;;;;;5.10;1.70;;;;;;;;;;5056819;28;20411;-75
2021/07/06 03:24:39;;;;;;;2.13;1.60;;;;;;;;;;5056510;28;20569;-76
2021/07/06 03:27:05;;;;;;;4.83;1.67;;;;;;;;;;5056638;28;20873;-75
2021/07/06 03:29:31;;;;;;;6.47;1.97;;;;;;;;;;5056545;28;20391;-75
2021/07/06 03:31:58;;;;;;;1.57;1.30;;;;;;;;;;5056506;28;20409;-75
2021/07/06 03:34:24;;;;;;;2.13;1.60;;;;;;;;;;5056180;28;20485;-75
2021/07/06 03:36:50;;;;;;;3.17;1.60;;;;;;;;;;5056445;28;20775;-75
2021/07/06 03:39:16;;;;;;;1.73;1.20;;;;;;;;;;5056243;28;20517;-75
2021/07/06 03:41:43;;;;;;;1.90;1.30;;;;;;;;;;5056438;28;20404;-76
2021/07/06 03:44:09;;;;;;;2.20;1.43;;;;;;;;;;5057491;28;20424;-75
2021/07/06 03:46:35;;;;;;;5.20;1.83;;;;;;;;;;5055027;28;20415;-75
2021/07/06 03:49:01;;;;;;;4.80;1.70;;;;;;;;;;5056291;28;20387;-76
2021/07/06 03:51:27;;;;;;;2.40;1.27;;;;;;;;;;5056046;28;20441;-76
2021/07/06 03:53:53;;;;;;;3.97;1.50;;;;;;;;;;5055858;28;20382;-75
2021/07/06 03:56:19;;;;;;;2.77;1.70;;;;;;;;;;5056091;28;20387;-76
2021/07/06 03:58:45;;;;;;;3.60;1.60;;;;;;;;;;5055979;28;20467;-75
2021/07/06 04:01:11;;;;;;;8.97;1.73;;;;;;;;;;5054846;28;20431;-76
2021/07/06 04:03:37;;;;;;;3.40;1.30;;;;;;;;;;5055716;28;20447;-76
2021/07/06 04:06:03;;;;;;;5.33;2.03;;;;;;;;;;5055969;28;20844;-76
2021/07/06 04:08:29;;;;;;;2.43;1.43;;;;;;;;;;5038042;28;20416;-75
2021/07/06 04:10:55;;;;;;;2.13;1.57;;;;;;;;;;5055992;28;20775;-76
2021/07/06 04:13:21;;;;;;;5.00;1.63;;;;;;;;;;5055487;28;20462;-76
2021/07/06 04:15:47;;;;;;;5.60;2.20;;;;;;;;;;5055535;28;20470;-75
2021/07/06 04:18:13;;;;;;;2.93;1.70;;;;;;;;;;5055476;28;20962;-75
2021/07/06 04:20:39;;;;;;;3.03;2.20;;;;;;;;;;5055863;28;20477;-75
2021/07/06 04:23:07;;;;;;;4.43;2.10;;;;;;;;;;5056577;28;20408;-75
2021/07/06 04:25:35;;;;;;;3.37;1.93;;;;;;;;;;5055689;28;20428;-75
2021/07/06 04:28:01;;;;;;;3.30;1.60;;;;;;;;;;5055858;28;20439;-74
2021/07/06 04:30:27;;;;;;;3.43;1.90;;;;;;;;;;5055423;28;20404;-75
2021/07/06 04:32:53;;;;;;;5.10;2.03;;;;;;;;;;5054834;28;20755;-75
2021/07/06 04:35:22;;;;;;;6.10;2.17;;;;;;;;;;5055063;28;20436;-75
2021/07/06 04:37:48;;;;;;;3.13;1.50;;;;;;;;;;5054990;28;20447;-74
2021/07/06 04:40:14;;;;;;;5.43;1.80;;;;;;;;;;5055234;28;20480;-76
2021/07/06 04:42:40;;;;;;;4.43;1.63;;;;;;;;;;5053800;28;20415;-75
2021/07/06 04:45:06;;;;;;;4.60;2.00;;;;;;;;;;5054756;28;20472;-75
2021/07/06 04:47:32;;;;;;;3.00;2.23;;;;;;;;;;5055137;28;20524;-76
2021/07/06 04:49:58;;;;;;;8.07;1.90;;;;;;;;;;5056074;28;20764;-75
2021/07/06 04:52:24;;;;;;;2.50;1.93;;;;;;;;;;5055020;28;20416;-75
2021/07/06 04:54:50;;;;;;;3.60;2.63;;;;;;;;;;5054537;28;20403;-75
2021/07/06 04:57:21;;;;;;;2.80;1.97;;;;;;;;;;5054906;28;20386;-75
2021/07/06 04:59:47;;;;;;;3.83;1.77;;;;;;;;;;5054697;28;20505;-75
2021/07/06 05:02:13;;;;;;;4.20;2.17;;;;;;;;;;5053551;28;20478;-76
2021/07/06 05:04:39;;;;;;;4.27;2.20;;;;;;;;;;5054261;28;20442;-75
2021/07/06 05:07:05;;;;;;;2.77;2.00;;;;;;;;;;5054615;28;20415;-75
2021/07/06 05:09:32;;;;;;;3.00;2.10;;;;;;;;;;5071223;28;20434;-74
2021/07/06 05:11:58;;;;;;;3.40;2.23;;;;;;;;;;5072781;28;20423;-75
2021/07/06 05:14:24;;;;;;;4.00;2.20;;;;;;;;;;5074283;28;20520;-75
2021/07/06 05:16:50;;;;;;;3.20;2.00;;;;;;;;;;5074526;28;20931;-75
2021/07/06 05:19:16;;;;;;;4.53;1.80;;;;;;;;;;5073257;28;20454;-75
2021/07/06 05:21:42;;;;;;;2.73;1.73;;;;;;;;;;5074522;28;20945;-75
2021/07/06 05:24:08;;;;;;;3.63;1.87;;;;;;;;;;5073847;28;20405;-75
2021/07/06 05:26:34;;;;;;;2.70;1.70;;;;;;;;;;5074308;28;20769;-76
2021/07/06 05:29:00;;;;;;;3.63;2.57;;;;;;;;;;5074316;28;20385;-75
2021/07/06 05:31:26;;;;;;;3.73;2.10;;;;;;;;;;5074227;28;20394;-75
2021/07/06 05:33:52;;;;;;;3.50;1.90;;;;;;;;;;5073784;28;20415;-75
2021/07/06 05:36:19;;;;;;;3.10;2.07;;;;;;;;;;5072669;28;20465;-75
2021/07/06 05:38:45;;;;;;;2.60;2.03;;;;;;;;;;5073865;28;20471;-75
2021/07/06 05:41:13;;;;;;;5.90;2.80;;;;;;;;;;5074025;28;20434;-74
2021/07/06 05:43:39;;;;;;;3.50;2.20;;;;;;;;;;5072895;28;20378;-75
2021/07/06 05:46:05;;;;;;;9.63;2.90;;;;;;;;;;5073850;28;20403;-76
2021/07/06 05:48:31;;;;;;;4.10;2.63;;;;;;;;;;5072531;28;20458;-75
2021/07/06 05:50:57;;;;;;;4.73;2.40;;;;;;;;;;5072563;28;20393;-75
2021/07/06 05:53:23;;;;;;;6.80;2.33;;;;;;;;;;5072166;28;20419;-75
2021/07/06 05:55:49;;;;;;;2.73;2.10;;;;;;;;;;5073594;28;20796;-76
2021/07/06 05:58:15;;;;;;;5.63;2.53;;;;;;;;;;5073546;28;20430;-75
2021/07/06 06:00:42;;;;;;;6.47;2.97;;;;;;;;;;5073026;28;20745;-75
2021/07/06 06:03:10;;;;;;;2.70;1.73;;;;;;;;;;5073336;28;20434;-75
2021/07/06 06:05:36;;;;;;;5.03;2.00;;;;;;;;;;5072328;28;20798;-76
2021/07/06 06:08:02;;;;;;;3.03;2.03;;;;;;;;;;5073528;28;20926;-76
2021/07/06 06:10:29;;;;;;;4.37;2.90;;;;;;;;;;5073603;28;20419;-75
2021/07/06 06:12:55;;;;;;;3.77;3.23;;;;;;;;;;5073358;28;20461;-76
2021/07/06 06:15:21;;;;;;;7.23;2.40;;;;;;;;;;5072186;28;20931;-76
2021/07/06 06:17:47;;;;;;;3.87;2.67;;;;;;;;;;5073536;28;20411;-76
2021/07/06 06:20:13;;;;;;;2.57;2.37;;;;;;;;;;5073293;28;20460;-75
2021/07/06 06:22:39;;;;;;;3.20;2.90;;;;;;;;;;5073213;28;20773;-75
2021/07/06 06:25:06;;;;;;;3.60;2.30;;;;;;;;;;5073083;28;20431;-75
2021/07/06 06:27:32;;;;;;;2.60;2.40;;;;;;;;;;5070047;28;20456;-79
2021/07/06 06:29:58;;;;;;;5.30;2.53;;;;;;;;;;5064602;28;20423;-77
2021/07/06 06:32:24;;;;;;;5.73;2.50;;;;;;;;;;5053059;28;20394;-77
2021/07/06 06:34:51;;;;;;;5.87;2.33;;;;;;;;;;5061063;28;20428;-77
2021/07/06 06:37:17;;;;;;;2.53;2.30;;;;;;;;;;5053358;28;20406;-78
2021/07/06 06:39:43;;;;;;;3.90;2.50;;;;;;;;;;5053480;28;20541;-78
2021/07/06 06:42:09;;;;;;;4.77;2.13;;;;;;;;;;5053358;28;20420;-79
2021/07/06 06:44:35;;;;;;;4.00;2.70;;;;;;;;;;5052776;28;20893;-79
2021/07/06 06:47:01;;;;;;;2.80;2.40;;;;;;;;;;5053205;28;20431;-77
2021/07/06 06:49:27;;;;;;;3.57;2.10;;;;;;;;;;5053164;28;20495;-78
2021/07/06 06:51:53;;;;;;;7.23;2.30;;;;;;;;;;5053279;28;20435;-82
2021/07/06 06:54:19;;;;;;;2.53;2.27;;;;;;;;;;5053140;28;20438;-78
2021/07/06 06:56:45;;;;;;;3.97;2.77;;;;;;;;;;5056814;28;20382;-78
2021/07/06 06:59:12;;;;;;;3.73;2.90;;;;;;;;;;5056644;28;20468;-79
2021/07/06 07:01:38;;;;;;;2.83;2.63;;;;;;;;;;5056199;28;20423;-79
2021/07/06 07:04:07;;;;;;;4.93;2.33;;;;;;;;;;5057008;28;20428;-78
2021/07/06 07:06:34;;;;;;;4.07;2.67;;;;;;;;;;5057495;28;20382;-79
2021/07/06 07:09:00;;;;;;;4.23;3.47;;;;;;;;;;5057923;28;20416;-78
2021/07/06 07:11:26;;;;;;;5.37;3.40;;;;;;;;;;5057549;28;20411;-77
2021/07/06 07:13:52;;;;;;;4.27;3.00;;;;;;;;;;5056665;28;20416;-79
2021/07/06 07:16:18;;;;;;;4.53;2.80;;;;;;;;;;5055781;28;20412;-79
2021/07/06 07:18:44;;;;;;;3.80;3.30;;;;;;;;;;5055749;28;20471;-79
2021/07/06 07:21:10;;;;;;;4.27;3.87;;;;;;;;;;5056525;28;20931;-78
2021/07/06 07:23:37;;;;;;;4.97;3.37;;;;;;;;;;5056359;28;20408;-79
2021/07/06 07:26:03;;;;;;;7.10;3.90;;;;;;;;;;5055326;28;20491;-77
2021/07/06 07:28:29;;;;;;;4.50;3.97;;;;;;;;;;5056870;28;20378;-79
2021/07/06 07:30:55;;;;;;;5.83;4.57;;;;;;;;;;5056658;28;20962;-80
2021/07/06 07:33:21;;;;;;;4.87;4.13;;;;;;;;;;5054842;28;20514;-80
2021/07/06 07:35:47;;;;;;;9.87;4.10;;;;;;;;;;5055410;28;20511;-77
2021/07/06 07:38:13;;;;;;;5.70;4.50;;;;;;;;;;5056169;28;20931;-80
2021/07/06 07:40:39;;;;;;;6.27;4.80;;;;;;;;;;5038644;28;20486;-80
2021/07/06 07:43:08;;;;;;;9.37;4.10;;;;;;;;;;5055987;28;20404;-78
2021/07/06 07:45:37;;;;;;;5.63;4.27;;;;;;;;;;5056246;28;20409;-77
2021/07/06 07:48:04;;;;;;;4.40;3.10;;;;;;;;;;5055004;28;20946;-79
2021/07/06 07:50:31;;;;;;;5.63;3.20;;;;;;;;;;5056225;28;20863;-78
2021/07/06 07:52:57;;;;;;;4.40;2.90;;;;;;;;;;5055753;28;20423;-78
2021/07/06 07:55:23;;;;;;;6.00;2.40;;;;;;;;;;5055912;28;20435;-77
2021/07/06 07:57:49;;;;;;;3.10;2.80;;;;;;;;;;5055991;28;20423;-77
2021/07/06 08:00:15;;;;;;;3.43;2.53;;;;;;;;;;5056140;28;20391;-79
2021/07/06 08:02:42;;;;;;;3.57;2.77;;;;;;;;;;5054556;28;20415;-80
2021/07/06 08:05:08;;;;;;;3.37;2.50;;;;;;;;;;5055440;28;20459;-79
2021/07/06 08:07:34;;;;;;;3.50;2.30;;;;;;;;;;5055114;28;20552;-77
2021/07/06 08:10:00;;;;;;;5.70;2.50;;;;;;;;;;5055678;28;20418;-77
2021/07/06 08:12:26;;;;;;;5.03;2.50;;;;;;;;;;5055393;28;20537;-80
2021/07/06 08:14:52;;;;;;;3.33;2.73;;;;;;;;;;5054318;28;20463;-79
2021/07/06 08:17:18;;;;;;;5.23;2.77;;;;;;;;;;5054404;28;20585;-79
2021/07/06 08:19:45;;;;;;;2.30;2.10;;;;;;;;;;5054420;28;20474;-78
2021/07/06 08:22:11;;;;;;;3.93;2.47;;;;;;;;;;5054465;28;20387;-78
2021/07/06 08:24:37;;;;;;;2.50;2.13;;;;;;;;;;5055220;28;20423;-78
2021/07/06 08:27:03;;;;;;;2.80;2.60;;;;;;;;;;5055571;28;20957;-79
2021/07/06 08:29:31;;;;;;;5.57;2.40;;;;;;;;;;5055427;28;20470;-76
2021/07/06 08:31:57;;;;;;;4.97;2.10;;;;;;;;;;5055134;28;20391;-79
2021/07/06 08:34:23;;;;;;;2.73;1.90;;;;;;;;;;5054577;28;20489;-79
2021/07/06 08:36:49;;;;;;;3.53;1.90;;;;;;;;;;5055379;28;20793;-79
2021/07/06 08:39:15;;;;;;;3.40;1.80;;;;;;;;;;5055162;28;20434;-80
2021/07/06 08:41:41;;;;;;;3.50;2.97;;;;;;;;;;5055057;28;20390;-80
2021/07/06 08:44:07;;;;;;;4.27;2.07;;;;;;;;;;5053468;28;20451;-79
2021/07/06 08:46:36;;;;;;;3.53;2.00;;;;;;;;;;5055178;28;20909;-77
2021/07/06 08:49:02;;;;;;;3.43;2.10;;;;;;;;;;5054947;28;20419;-79
2021/07/06 08:51:30;;;;;;;3.00;1.67;;;;;;;;;;5054871;28;20420;-78
2021/07/06 08:53:56;;;;;;;2.07;1.87;;;;;;;;;;5054442;28;20410;-78
2021/07/06 08:56:22;;;;;;;1.90;1.70;;;;;;;;;;5054810;28;20394;-77
2021/07/06 08:58:48;;;;;;;7.30;2.30;;;;;;;;;;5054800;28;20459;-77
2021/07/06 09:01:14;;;;;;;1.90;1.60;;;;;;;;;;5054790;28;20407;-77
2021/07/06 09:03:57;;;;;;;3.00;1.97;;;;;;;;;;5054277;28;20448;-78
2021/07/06 09:06:23;;;;;;;8.43;1.73;;;;;;;;;;5054665;28;20379;-77
2021/07/06 09:08:53;;;;;;;4.23;1.70;;;;;;;;;;5054529;28;20411;-78
2021/07/06 09:11:20;;;;;;;1.70;1.60;;;;;;;;;;5054632;28;20439;-77
2021/07/06 09:13:46;;;;;;;3.00;1.67;;;;;;;;;;5053988;28;20390;-78
2021/07/06 09:16:22;;;;;;;2.17;1.47;;;;;;;;;;5053208;28;20875;-77
2021/07/06 09:18:48;;;;;;;1.93;1.40;;;;;;;;;;5053396;28;20796;-77
2021/07/06 09:21:15;;;;;;;5.27;1.10;;;;;;;;;;5054418;28;20375;-77
2021/07/06 09:23:42;;;;;;;1.20;0.80;;;;;;;;;;5053875;28;20412;-77
2021/07/06 09:26:08;;;;;;;0.77;0.57;;;;;;;;;;5054472;28;20763;-78
2021/07/06 09:28:35;;;;;;;0.93;0.77;;;;;;;;;;5054302;28;20389;-78
2021/07/06 09:31:21;;;;;;;1.03;0.80;;;;;;;;;;5054219;28;20452;-78
2021/07/06 09:33:48;;;;;;;1.90;0.93;;;;;;;;;;5053038;28;20412;-78
2021/07/06 09:36:31;;;;;;;3.90;0.90;;;;;;;;;;5053944;28;20784;-77
2021/07/06 09:39:00;;;;;;;1.10;0.83;;;;;;;;;;5053972;28;20853;-77
2021/07/06 09:41:26;;;;;;;0.90;0.70;;;;;;;;;;5053894;28;20397;-77
2021/07/06 09:43:52;;;;;;;4.07;0.83;;;;;;;;;;5053491;28;20916;-77
2021/07/06 09:46:17;;;;;;;1.10;0.80;;;;;;;;;;5053768;28;20517;-78
2021/07/06 09:48:47;;;;;;;1.47;0.70;;;;;;;;;;5053997;28;20408;-78
2021/07/06 09:51:18;;;;;;;2.80;1.03;;;;;;;;;;5052598;28;20944;-77
2021/07/06 09:53:48;;;;;;;1.30;0.67;;;;;;;;;;5053380;28;20382;-77
2021/07/06 09:56:15;;;;;;;1.00;0.73;;;;;;;;;;5053577;28;20418;-78
2021/07/06 09:59:01;;;;;;;1.03;0.70;;;;;;;;;;5052630;28;20546;-77
2021/07/06 10:01:27;;;;;;;1.07;0.80;;;;;;;;;;5053580;28;20427;-77
2021/07/06 10:03:54;;;;;;;1.23;0.97;;;;;;;;;;5053189;28;20379;-78
2021/07/06 10:06:21;;;;;;;0.73;0.73;;;;;;;;;;5053508;28;20379;-77
2021/07/06 10:08:48;;;;;;;1.70;0.90;;;;;;;;;;5053597;28;20383;-77
2021/07/06 10:11:14;;;;;;;1.20;0.80;;;;;;;;;;5053481;28;20408;-77
2021/07/06 10:13:41;;;;;;;1.30;1.00;;;;;;;;;;5051968;28;20814;-77
2021/07/06 10:16:07;;;;;;;3.07;0.60;;;;;;;;;;5053281;28;20511;-77
2021/07/06 10:18:33;;;;;;;0.90;0.80;;;;;;;;;;5053627;28;20975;-77
2021/07/06 10:21:03;;;;;;;1.20;0.70;;;;;;;;;;5052229;28;20420;-77
2021/07/06 10:23:30;;;;;;;1.33;0.80;;;;;;;;;;5053156;28;20411;-78
2021/07/06 10:25:57;;;;;;;0.80;0.70;;;;;;;;;;5052120;28;20440;-77
2021/07/06 10:28:25;;;;;;;0.83;0.67;;;;;;;;;;5053093;28;20855;-77
2021/07/06 10:30:51;;;;;;;2.20;0.70;;;;;;;;;;5053031;28;20416;-78
2021/07/06 10:33:36;;;;;;;0.90;0.70;;;;;;;;;;5051898;28;20408;-77
2021/07/06 10:36:03;;;;;;;1.17;0.70;;;;;;;;;;5054758;28;20400;-77
2021/07/06 10:38:30;;;;;;;1.70;0.87;;;;;;;;;;5051696;28;20471;-77
2021/07/06 10:40:58;;;;;;;0.70;0.57;;;;;;;;;;5053566;28;20467;-77
2021/07/06 10:43:42;;;;;;;2.40;0.70;;;;;;;;;;5052692;28;20415;-78
2021/07/06 10:46:17;;;;;;;0.83;0.60;;;;;;;;;;5053062;28;20404;-77
2021/07/06 10:48:57;;;;;;;2.43;0.77;;;;;;;;;;5052978;28;20408;-76
2021/07/06 10:51:38;;;;;;;2.03;0.80;;;;;;;;;;5053107;28;20491;-75
2021/07/06 10:54:07;;;;;;;1.60;0.70;;;;;;;;;;5051195;28;20805;-77
2021/07/06 10:56:43;;;;;;;1.07;0.60;;;;;;;;;;5052534;28;20396;-76
2021/07/06 10:59:20;;;;;;;1.43;0.63;;;;;;;;;;5052894;28;20542;-76
2021/07/06 11:01:46;;;;;;;1.93;0.70;;;;;;;;;;5053915;28;20523;-76
2021/07/06 11:04:13;;;;;;;1.20;0.60;;;;;;;;;;5053274;28;20513;-77
2021/07/06 11:06:48;;;;;;;1.93;1.10;;;;;;;;;;5053162;28;20400;-77
2021/07/06 11:09:20;;;;;;;1.33;0.80;;;;;;;;;;5053133;28;20412;-77
2021/07/06 11:11:46;;;;;;;0.80;0.60;;;;;;;;;;5053716;28;20936;-77
2021/07/06 11:14:21;;;;;;;1.00;0.70;;;;;;;;;;5053396;28;20432;-77
2021/07/06 11:17:03;;;;;;;1.60;0.70;;;;;;;;;;5054094;28;20408;-77
2021/07/06 11:19:37;;;;;;;1.10;1.00;;;;;;;;;;5052127;28;20490;-78
2021/07/06 11:22:16;;;;;;;0.97;0.67;;;;;;;;;;5052705;28;20412;-76
2021/07/06 11:24:44;;;;;;;0.77;0.60;;;;;;;;;;5053780;28;20428;-77
2021/07/06 11:27:12;;;;;;;1.77;1.00;;;;;;;;;;5053543;28;20824;-76
2021/07/06 11:29:39;;;;;;;2.13;0.70;;;;;;;;;;5051397;28;21004;-77
2021/07/06 11:32:08;;;;;;;3.47;1.00;;;;;;;;;;5053552;28;20447;-77
2021/07/06 11:34:34;;;;;;;1.53;0.70;;;;;;;;;;5053047;28;20460;-77
2021/07/06 11:37:03;;;;;;;4.40;0.70;;;;;;;;;;5052970;28;20424;-76
2021/07/06 11:39:29;;;;;;;0.80;0.50;;;;;;;;;;5053200;28;20871;-77
2021/07/06 11:41:55;;;;;;;2.03;0.80;;;;;;;;;;5055127;28;20472;-76
2021/07/06 11:44:22;;;;;;;3.50;0.90;;;;;;;;;;5054460;28;20606;-77
2021/07/06 11:46:49;;;;;;;1.20;0.80;;;;;;;;;;5057203;28;20473;-76
2021/07/06 11:49:20;;;;;;;2.30;0.63;;;;;;;;;;5055515;28;20432;-77
2021/07/06 11:51:46;;;;;;;1.27;0.60;;;;;;;;;;5056388;28;20909;-76
2021/07/06 11:54:13;;;;;;;2.30;0.70;;;;;;;;;;5055886;28;20442;-76
2021/07/06 11:56:39;;;;;;;1.60;0.80;;;;;;;;;;5056688;28;20416;-77
2021/07/06 11:59:09;;;;;;;5.63;1.13;;;;;;;;;;5055043;28;20574;-78
2021/07/06 12:01:35;;;;;;;3.33;0.80;;;;;;;;;;5056647;28;20463;-76
2021/07/06 12:04:01;;;;;;;4.20;0.90;;;;;;;;;;5056484;28;20940;-77
2021/07/06 12:06:30;;;;;;;1.43;0.70;;;;;;;;;;5055811;28;20431;-78
2021/07/06 12:09:01;;;;;;;1.30;0.80;;;;;;;;;;5056783;28;20424;-78
2021/07/06 12:11:29;;;;;;;2.00;0.67;;;;;;;;;;5055547;28;20399;-76
2021/07/06 12:14:03;;;;;;;1.10;0.80;;;;;;;;;;5055272;28;20408;-76
2021/07/06 12:16:39;;;;;;;1.17;0.70;;;;;;;;;;5054238;28;20408;-76
2021/07/06 12:19:10;;;;;;;4.27;1.00;;;;;;;;;;5055722;28;20825;-77
2021/07/06 12:21:37;;;;;;;3.17;1.40;;;;;;;;;;5056062;28;20408;-78
2021/07/06 12:24:10;;;;;;;1.87;0.80;;;;;;;;;;5055351;28;20519;-77
2021/07/06 12:26:37;;;;;;;1.57;0.90;;;;;;;;;;5055702;28;20408;-77
2021/07/06 12:29:03;;;;;;;1.10;0.70;;;;;;;;;;5054190;28;20420;-77
2021/07/06 12:31:33;;;;;;;3.03;1.10;;;;;;;;;;5055309;28;20522;-77
2021/07/06 12:34:08;;;;;;;1.53;0.80;;;;;;;;;;5055042;28;20432;-77
2021/07/06 12:36:38;;;;;;;5.63;0.93;;;;;;;;;;5055443;28;20403;-76
2021/07/06 12:39:13;;;;;;;1.20;0.80;;;;;;;;;;5055239;28;20559;-76
2021/07/06 12:41:42;;;;;;;3.87;0.90;;;;;;;;;;5055233;28;20486;-77
2021/07/06 12:44:09;;;;;;;1.47;0.80;;;;;;;;;;5054912;28;20857;-76
2021/07/06 12:46:35;;;;;;;1.60;0.90;;;;;;;;;;5054218;28;20420;-76
2021/07/06 12:49:01;;;;;;;2.00;0.97;;;;;;;;;;5054958;28;20511;-78
2021/07/06 12:51:27;;;;;;;3.47;0.80;;;;;;;;;;5055141;28;20498;-76
2021/07/06 12:54:00;;;;;;;2.53;0.70;;;;;;;;;;5054335;28;20389;-76
2021/07/06 12:56:28;;;;;;;2.10;0.93;;;;;;;;;;5054769;28;20416;-78
2021/07/06 12:58:55;;;;;;;5.83;0.80;;;;;;;;;;5054940;28;20525;-79
2021/07/06 13:01:33;;;;;;;1.07;0.70;;;;;;;;;;5054746;28;20951;-76
2021/07/06 13:04:00;;;;;;;1.53;0.80;;;;;;;;;;5054363;28;20431;-77
2021/07/06 13:06:26;;;;;;;2.60;1.07;;;;;;;;;;5054715;28;20530;-77
2021/07/06 13:08:53;;;;;;;2.37;1.30;;;;;;;;;;5054627;28;20408;-76
2021/07/06 13:11:25;;;;;;;2.10;0.90;;;;;;;;;;5054613;28;20777;-76
2021/07/06 13:13:53;;;;;;;2.87;1.03;;;;;;;;;;5052938;28;20469;-76
2021/07/06 13:16:26;;;;;;;2.70;1.10;;;;;;;;;;5054597;28;20396;-77
2021/07/06 13:18:52;;;;;;;1.80;1.00;;;;;;;;;;5053605;28;21058;-79
2021/07/06 13:21:19;;;;;;;3.47;1.10;;;;;;;;;;5054378;28;20450;-79
2021/07/06 13:23:45;;;;;;;3.27;0.90;;;;;;;;;;5054097;28;20890;-80
2021/07/06 13:26:12;;;;;;;3.90;0.83;;;;;;;;;;5054404;28;20404;-77
2021/07/06 13:28:38;;;;;;;2.53;1.03;;;;;;;;;;5054242;28;20416;-78
2021/07/06 13:31:07;;;;;;;3.77;1.00;;;;;;;;;;5054337;28;20416;-78
2021/07/06 13:33:38;;;;;;;3.17;1.00;;;;;;;;;;5053822;28;20408;-78
2021/07/06 13:36:04;;;;;;;2.03;0.80;;;;;;;;;;5053290;28;20432;-77
2021/07/06 13:38:31;;;;;;;1.53;0.97;;;;;;;;;;5053961;28;20472;-78
2021/07/06 13:40:57;;;;;;;5.00;0.97;;;;;;;;;;5054174;28;20772;-79
2021/07/06 13:43:24;;;;;;;2.00;0.93;;;;;;;;;;5053797;28;20760;-79
2021/07/06 13:45:50;;;;;;;5.50;1.17;;;;;;;;;;5052711;28;20415;-79
2021/07/06 13:48:17;;;;;;;2.70;1.00;;;;;;;;;;5052799;28;20786;-78
2021/07/06 13:50:43;;;;;;;3.27;0.83;;;;;;;;;;5054136;28;20479;-79
2021/07/06 13:53:10;;;;;;;2.53;1.03;;;;;;;;;;5052458;28;20947;-78
2021/07/06 13:55:37;;;;;;;2.17;0.90;;;;;;;;;;5052553;28;20434;-78
2021/07/06 13:58:04;;;;;;;5.50;1.10;;;;;;;;;;5054247;28;20412;-79
2021/07/06 14:00:31;;;;;;;2.10;0.80;;;;;;;;;;5053713;28;20778;-77
2021/07/06 14:02:58;;;;;;;4.77;0.90;;;;;;;;;;5053448;28;20462;-79
2021/07/06 14:05:25;;;;;;;1.10;0.70;;;;;;;;;;5052832;28;20424;-78
2021/07/06 14:07:50;;;;;;;3.50;1.13;;;;;;;;;;5052300;28;20412;-78
2021/07/06 14:10:17;;;;;;;1.70;0.80;;;;;;;;;;5053398;28;20462;-77
2021/07/06 14:12:43;;;;;;;3.00;0.90;;;;;;;;;;5053356;28;20409;-78
2021/07/06 14:15:09;;;;;;;5.10;1.60;;;;;;;;;;5051885;28;20793;-80
2021/07/06 14:17:36;;;;;;;1.80;0.93;;;;;;;;;;5053403;28;20927;-79
2021/07/06 14:20:03;;;;;;;3.40;1.20;;;;;;;;;;5053327;28;20467;-78
2021/07/06 14:22:29;;;;;;;4.80;1.20;;;;;;;;;;5053241;28;20495;-78
2021/07/06 14:24:55;;;;;;;3.57;1.10;;;;;;;;;;5052943;28;20507;-78
2021/07/06 14:27:21;;;;;;;1.83;0.83;;;;;;;;;;5053524;28;20929;-80
2021/07/06 14:29:47;;;;;;;2.00;0.93;;;;;;;;;;5053517;28;20412;-81
2021/07/06 14:32:14;;;;;;;4.30;1.00;;;;;;;;;;5053137;28;20412;-79
2021/07/06 14:34:40;;;;;;;4.30;0.80;;;;;;;;;;5052974;28;20436;-78
2021/07/06 14:37:06;;;;;;;4.50;0.97;;;;;;;;;;5053166;28;20766;-79
2021/07/06 14:39:33;;;;;;;1.70;0.93;;;;;;;;;;5053138;28;20458;-78
2021/07/06 14:42:04;;;;;;;5.97;1.20;;;;;;;;;;5053179;28;20401;-78
2021/07/06 14:44:30;;;;;;;1.23;0.90;;;;;;;;;;5052671;28;20424;-78